Time;durP1;ratioP1;P1;durP2;ratioP2;P2;SDS_P1;SDS_P2;PMS_P1;PMS_P2;Temp;Humidity;BMP_temperature;BMP_pressure;BME280_temperature;BME280_humidity;BME280_pressure;Samples;Min_cycle;Max_cycle;Signal;HPM_P1;HPM_P2
2021/01/20 00:00:33;;;;;;;5.85;3.83;;;;;;;-0.58;87.37;95996.11;1709140;84;21164;-82
2021/01/20 00:03:03;;;;;;;7.87;5.00;;;;;;;-0.57;87.40;96003.41;1709247;83;21499;-82
2021/01/20 00:05:30;;;;;;;6.60;3.60;;;;;;;-0.56;87.47;95993.28;1709195;84;21511;-82
2021/01/20 00:07:57;;;;;;;7.03;4.70;;;;;;;-0.58;87.61;95994.80;1709090;84;21166;-82
2021/01/20 00:10:24;;;;;;;7.92;4.87;;;;;;;-0.59;87.33;95998.43;1709093;84;21491;-83
2021/01/20 00:12:51;;;;;;;7.55;4.70;;;;;;;-0.58;87.65;96002.61;1709188;84;21499;-83
2021/01/20 00:15:23;;;;;;;6.58;3.55;;;;;;;-0.57;87.86;96009.92;1709158;83;21166;-82
2021/01/20 00:17:51;;;;;;;6.55;3.47;;;;;;;-0.56;87.89;96012.33;1739468;82;21159;-82
2021/01/20 00:20:19;;;;;;;7.97;4.53;;;;;;;-0.53;87.90;96007.17;1756992;81;21148;-83
2021/01/20 00:22:48;;;;;;;6.08;2.90;;;;;;;-0.46;87.87;96014.37;1756725;81;21167;-82
2021/01/20 00:25:18;;;;;;;3.60;2.65;;;;;;;-0.40;87.77;96007.77;1756733;82;21159;-83
2021/01/20 00:27:45;;;;;;;6.20;3.45;;;;;;;-0.31;87.59;96016.83;1756920;82;21185;-82
2021/01/20 00:33:04;;;;;;;4.05;2.58;;;;;;;-0.19;87.25;96027.27;1756715;81;21148;-83
2021/01/20 00:35:31;;;;;;;5.08;3.12;;;;;;;-0.23;86.88;95997.49;1756785;81;21571;-83
2021/01/20 00:37:58;;;;;;;4.47;3.50;;;;;;;-0.23;86.88;95997.49;1756678;82;21139;-82
2021/01/20 00:40:25;;;;;;;6.35;4.03;;;;;;;-0.09;86.88;96022.82;1756984;81;21158;-82
2021/01/20 00:42:52;;;;;;;5.83;2.60;;;;;;;-0.07;86.81;96015.05;1757305;81;21165;-82
2021/01/20 00:45:19;;;;;;;2.00;1.67;;;;;;;-0.03;86.72;96033.62;1756670;82;21143;-82
2021/01/20 00:47:46;;;;;;;4.72;3.17;;;;;;;-0.02;86.64;96026.89;1756387;81;21120;-82
2021/01/20 00:50:13;;;;;;;5.15;2.20;;;;;;;-0.10;86.63;96014.21;1756761;81;21152;-83
2021/01/20 00:52:40;;;;;;;4.25;3.00;;;;;;;0.01;86.79;96026.18;1756704;82;21152;-83
2021/01/20 00:55:10;;;;;;;4.60;2.62;;;;;;;0.01;86.74;96024.88;1756707;82;21483;-82
2021/01/20 00:57:37;;;;;;;6.00;3.50;;;;;;;0.01;86.74;96024.88;1756822;82;21500;-82
2021/01/20 01:00:06;;;;;;;4.97;3.05;;;;;;;-0.01;86.87;96019.86;1756757;81;21504;-83
2021/01/20 01:02:36;;;;;;;3.20;2.30;;;;;;;-0.01;86.98;96019.36;1756705;82;21112;-82
2021/01/20 01:05:08;;;;;;;5.25;1.95;;;;;;;-0.01;87.03;96009.44;1756712;82;21135;-82
2021/01/20 01:07:35;;;;;;;6.62;4.03;;;;;;;-0.02;87.05;96015.16;1756864;82;21179;-82
2021/01/20 01:10:04;;;;;;;4.15;3.35;;;;;;;-0.03;86.90;96012.78;1756673;81;21159;-82
2021/01/20 01:12:31;;;;;;;6.25;4.10;;;;;;;-0.01;86.89;96011.53;1756790;81;21124;-82
2021/01/20 01:14:58;;;;;;;6.17;4.25;;;;;;;-0.01;86.74;96013.35;1756884;81;21136;-82
2021/01/20 01:17:26;;;;;;;6.10;3.75;;;;;;;-0.04;86.60;96004.69;1756724;82;21179;-82
2021/01/20 01:19:54;;;;;;;3.33;2.22;;;;;;;-0.09;86.36;96018.91;1757204;81;21152;-82
2021/01/20 01:22:21;;;;;;;4.17;2.17;;;;;;;-0.09;86.36;96018.91;1757191;82;21148;-82
2021/01/20 01:24:48;;;;;;;3.60;2.47;;;;;;;-0.10;86.36;96031.66;1757481;82;21112;-82
2021/01/20 01:27:15;;;;;;;7.40;4.55;;;;;;;-0.12;86.50;96033.19;1757180;82;21164;-82
2021/01/20 01:29:42;;;;;;;5.75;3.83;;;;;;;-0.14;86.65;96016.99;1757264;81;21176;-82
2021/01/20 01:32:09;;;;;;;6.85;4.25;;;;;;;-0.17;86.63;96004.39;1757327;82;21257;-82
2021/01/20 01:34:36;;;;;;;5.03;3.52;;;;;;;-0.20;86.72;96018.38;1757197;81;21152;-82
2021/01/20 01:37:03;;;;;;;5.95;2.92;;;;;;;-0.24;86.80;96015.44;1757304;81;21188;-82
2021/01/20 01:39:33;;;;;;;4.62;3.02;;;;;;;-0.24;86.89;96023.25;1757176;81;21152;-82
2021/01/20 01:42:01;;;;;;;6.15;3.52;;;;;;;-0.18;86.89;96023.65;1757222;82;21139;-82
2021/01/20 01:44:28;;;;;;;5.12;2.85;;;;;;;-0.17;86.70;96019.23;1757197;82;21531;-82
2021/01/20 01:46:55;;;;;;;6.42;4.10;;;;;;;-0.20;86.80;95995.73;1757135;82;21156;-82
2021/01/20 01:49:24;;;;;;;6.17;3.20;;;;;;;-0.22;86.84;96005.59;1757337;81;21167;-82
2021/01/20 01:51:54;;;;;;;6.60;4.00;;;;;;;-0.22;86.95;95993.07;1757202;82;21171;-82
2021/01/20 01:54:21;;;;;;;5.12;2.90;;;;;;;-0.21;87.08;95985.54;1757341;81;21454;-82
2021/01/20 01:56:48;;;;;;;6.22;3.67;;;;;;;-0.22;87.21;95983.45;1757199;82;21515;-82
2021/01/20 01:59:15;;;;;;;7.17;3.35;;;;;;;-0.24;87.21;95993.30;1757169;81;21519;-82
2021/01/20 02:01:42;;;;;;;3.95;3.17;;;;;;;-0.22;87.47;96010.80;1757189;82;21503;-83
2021/01/20 02:04:09;;;;;;;5.40;3.58;;;;;;;-0.21;87.51;95996.75;1757189;82;21155;-83
2021/01/20 02:06:38;;;;;;;5.00;2.62;;;;;;;-0.22;87.49;96000.37;1756873;82;21540;-82
2021/01/20 02:09:05;;;;;;;4.62;3.12;;;;;;;-0.20;87.44;96000.94;1757178;81;21155;-83
2021/01/20 02:11:49;;;;;;;3.33;2.75;;;;;;;-0.25;87.07;95983.91;1757280;82;21495;-82
2021/01/20 02:14:33;;;;;;;5.12;2.45;;;;;;;-0.25;87.07;95983.91;1745774;82;21183;-83
2021/01/20 02:17:36;;;;;;;4.10;3.45;;;;;;;-0.11;86.82;95996.20;1756131;82;21221;-82
2021/01/20 02:20:14;;;;;;;5.97;2.35;;;;;;;-0.06;86.57;96002.31;1751672;81;21286;-83
2021/01/20 02:22:52;;;;;;;5.72;2.50;;;;;;;-0.06;86.32;95983.28;1751667;82;21646;-83
2021/01/20 02:25:53;;;;;;;5.97;3.12;;;;;;;-0.01;86.13;95994.60;1751617;81;21160;-83
2021/01/20 02:28:28;;;;;;;3.52;2.33;;;;;;;0.01;85.89;96011.84;1751859;81;21442;-83
2021/01/20 02:30:56;;;;;;;4.80;3.12;;;;;;;0.04;85.70;96004.36;1746450;82;21547;-83
2021/01/20 02:33:25;;;;;;;3.80;2.55;;;;;;;0.04;85.55;96006.97;1751682;82;21639;-83
2021/01/20 02:35:56;;;;;;;5.37;2.72;;;;;;;0.05;85.51;96019.49;1751564;82;21163;-83
2021/01/20 02:38:28;;;;;;;5.97;3.35;;;;;;;0.05;85.47;96015.07;1751643;81;21552;-83
2021/01/20 02:40:55;;;;;;;6.12;3.10;;;;;;;0.05;85.42;96016.88;1751591;82;21148;-83
2021/01/20 02:43:24;;;;;;;5.78;3.33;;;;;;;0.04;85.35;95999.66;1751596;82;21175;-83
2021/01/20 02:45:51;;;;;;;6.62;2.65;;;;;;;0.07;85.27;95999.20;1751862;81;21191;-83
2021/01/20 02:48:20;;;;;;;4.60;2.83;;;;;;;0.09;85.26;96033.65;1751443;81;21532;-83
2021/01/20 02:50:47;;;;;;;4.35;2.72;;;;;;;0.08;85.19;96030.76;1751685;81;21209;-83
2021/01/20 02:53:19;;;;;;;5.35;3.45;;;;;;;0.09;85.12;96017.50;1751644;82;21622;-83
2021/01/20 02:55:57;;;;;;;2.12;1.85;;;;;;;0.09;85.07;96019.31;1751792;82;21575;-83
2021/01/20 02:58:28;;;;;;;3.10;1.82;;;;;;;0.09;85.08;96038.86;1751620;81;21148;-83
2021/01/20 03:00:59;;;;;;;3.45;2.47;;;;;;;0.10;85.02;96006.56;1762661;81;21249;-83
2021/01/20 03:03:29;;;;;;;3.20;2.45;;;;;;;0.05;84.94;96022.89;1764837;81;21250;-83
2021/01/20 03:05:56;;;;;;;3.25;2.42;;;;;;;0.08;84.89;96020.33;1764925;81;21147;-83
2021/01/20 03:08:26;;;;;;;3.65;2.37;;;;;;;0.07;84.92;96022.15;1734942;81;21128;-83
2021/01/20 03:10:55;;;;;;;3.65;2.42;;;;;;;0.11;84.90;96033.70;1735497;81;21134;-83
2021/01/20 03:13:24;;;;;;;4.55;2.35;;;;;;;0.16;84.86;96003.06;1764812;81;21637;-83
2021/01/20 03:15:53;;;;;;;2.75;2.25;;;;;;;0.17;84.81;96004.66;1764936;81;21166;-83
2021/01/20 03:18:20;;;;;;;4.45;3.10;;;;;;;0.15;84.83;95989.25;1756984;81;21175;-83
2021/01/20 03:20:47;;;;;;;4.40;2.45;;;;;;;0.16;84.96;96029.13;1757320;82;21587;-83
2021/01/20 03:23:14;;;;;;;4.22;2.15;;;;;;;0.16;85.10;96020.80;1757319;81;21143;-83
2021/01/20 03:25:41;;;;;;;3.30;1.87;;;;;;;0.17;85.28;96003.34;1757304;82;21535;-83
2021/01/20 03:28:08;;;;;;;4.65;2.25;;;;;;;0.16;85.52;96016.10;1757332;81;21163;-83
2021/01/20 03:30:35;;;;;;;2.47;1.77;;;;;;;0.16;85.66;95998.65;1757319;82;21140;-83
2021/01/20 03:33:02;;;;;;;2.58;1.52;;;;;;;0.15;86.00;96008.00;1757374;82;21172;-83
2021/01/20 03:35:29;;;;;;;3.35;1.65;;;;;;;0.13;86.14;95987.86;1757314;82;21139;-83
2021/01/20 03:37:55;;;;;;;4.75;2.02;;;;;;;0.16;86.15;96018.70;1757378;82;21143;-83
2021/01/20 03:40:22;;;;;;;3.15;2.02;;;;;;;0.21;86.22;96021.41;1757271;81;21163;-83
2021/01/20 03:42:49;;;;;;;3.70;2.10;;;;;;;0.22;86.30;96021.70;1757453;82;21151;-83
2021/01/20 03:45:16;;;;;;;4.28;2.27;;;;;;;0.19;86.52;96016.43;1757287;82;21140;-83
2021/01/20 03:47:43;;;;;;;2.58;1.95;;;;;;;0.18;86.74;96020.06;1757051;82;21164;-83
2021/01/20 03:50:12;;;;;;;3.20;1.75;;;;;;;0.18;86.89;96020.57;1757277;81;21508;-83
2021/01/20 03:52:39;;;;;;;2.25;1.45;;;;;;;0.09;86.84;96024.02;1757293;82;21143;-83
2021/01/20 03:55:07;;;;;;;3.47;2.47;;;;;;;0.09;86.84;96024.02;1757248;82;21139;-83
2021/01/20 03:57:34;;;;;;;3.72;2.10;;;;;;;0.23;86.62;96041.52;1757387;81;21108;-83
2021/01/20 04:00:02;;;;;;;4.08;1.82;;;;;;;0.24;86.47;96037.89;1757258;81;21567;-83
2021/01/20 04:02:29;;;;;;;3.12;1.92;;;;;;;0.17;86.27;96026.30;1759410;81;21143;-83
2021/01/20 04:04:56;;;;;;;3.02;1.87;;;;;;;0.28;86.21;96027.30;1776464;81;21280;-83
2021/01/20 04:07:23;;;;;;;2.40;1.98;;;;;;;0.31;86.15;96062.56;1776438;81;21150;-83
2021/01/20 04:09:50;;;;;;;3.58;1.98;;;;;;;0.31;86.05;96055.54;1776434;81;21318;-83
2021/01/20 04:12:17;;;;;;;2.72;1.92;;;;;;;0.32;86.04;96050.61;1776512;81;21498;-83
2021/01/20 04:14:44;;;;;;;2.42;2.00;;;;;;;0.31;85.97;96046.92;1776445;81;21272;-83
2021/01/20 04:17:11;;;;;;;3.12;1.87;;;;;;;0.34;85.98;96034.73;1769472;81;21278;-83
2021/01/20 04:19:38;;;;;;;2.33;1.72;;;;;;;0.27;85.82;96051.77;1757273;81;21286;-83
2021/01/20 04:22:05;;;;;;;1.50;1.12;;;;;;;0.40;85.77;96045.03;1757348;81;21508;-82
2021/01/20 04:24:32;;;;;;;5.05;2.22;;;;;;;0.44;85.62;96051.91;1757285;81;21499;-83
2021/01/20 04:26:59;;;;;;;3.37;2.20;;;;;;;0.46;85.49;96061.59;1757327;82;21151;-82
2021/01/20 04:29:26;;;;;;;2.98;1.70;;;;;;;0.46;85.56;96061.09;1757491;81;21331;-83
2021/01/20 04:31:53;;;;;;;3.00;1.70;;;;;;;0.46;85.56;96061.09;1757329;82;21528;-82
2021/01/20 04:34:19;;;;;;;1.75;1.60;;;;;;;0.45;85.37;96046.47;1757278;82;21499;-83
2021/01/20 04:36:46;;;;;;;3.62;2.05;;;;;;;0.43;85.35;96051.12;1757279;81;21135;-82
2021/01/20 04:39:13;;;;;;;2.42;1.62;;;;;;;0.45;85.33;96032.13;1757421;81;21172;-83
2021/01/20 04:41:40;;;;;;;3.45;1.75;;;;;;;0.49;85.30;96057.22;1757249;82;21116;-83
2021/01/20 04:44:07;;;;;;;1.57;1.15;;;;;;;0.51;85.16;96063.80;1757241;82;21144;-82
2021/01/20 04:46:37;;;;;;;3.10;1.98;;;;;;;0.52;85.31;96059.38;1757365;82;21108;-83
2021/01/20 04:49:08;;;;;;;2.40;1.27;;;;;;;0.52;85.31;96059.38;1757375;81;21128;-83
2021/01/20 04:51:39;;;;;;;3.85;1.98;;;;;;;0.51;85.29;96041.62;1757549;82;21136;-83
2021/01/20 04:54:11;;;;;;;3.65;1.70;;;;;;;0.51;85.42;96061.19;1757537;81;21160;-82
2021/01/20 04:56:39;;;;;;;2.70;1.87;;;;;;;0.49;85.55;96048.09;1757277;82;21136;-82
2021/01/20 04:59:07;;;;;;;2.95;1.65;;;;;;;0.47;85.72;96053.55;1757273;81;21149;-83
2021/01/20 05:01:35;;;;;;;3.50;1.65;;;;;;;0.45;85.96;96062.11;1757245;82;21140;-83
2021/01/20 05:04:04;;;;;;;3.55;1.50;;;;;;;0.39;86.18;96039.53;1757229;82;21155;-82
2021/01/20 05:06:32;;;;;;;3.80;2.27;;;;;;;0.39;86.18;96039.53;1757244;82;21159;-83
2021/01/20 05:08:59;;;;;;;2.85;1.70;;;;;;;0.52;86.05;96045.82;1757297;81;21151;-83
2021/01/20 05:11:43;;;;;;;3.62;1.98;;;;;;;0.55;85.96;96076.66;1757489;82;21152;-83
2021/01/20 05:14:18;;;;;;;2.92;2.05;;;;;;;0.58;85.82;96065.00;1756690;82;21523;-82
2021/01/20 05:16:52;;;;;;;3.17;2.12;;;;;;;0.62;85.67;96059.59;1757126;82;21119;-83
2021/01/20 05:19:25;;;;;;;3.77;2.42;;;;;;;0.65;85.53;96076.60;1752876;81;21612;-83
2021/01/20 05:22:11;;;;;;;1.77;1.57;;;;;;;0.67;85.45;96071.95;1749297;82;21599;-83
2021/01/20 05:24:40;;;;;;;4.20;2.50;;;;;;;0.68;85.26;96076.93;1751923;81;21270;-83
2021/01/20 05:27:07;;;;;;;4.60;2.10;;;;;;;0.73;85.26;96077.57;1751786;82;21303;-83
2021/01/20 05:29:34;;;;;;;2.62;1.92;;;;;;;0.80;85.17;96086.84;1751599;81;21188;-83
2021/01/20 05:32:19;;;;;;;3.22;2.10;;;;;;;0.80;85.17;96086.84;1751625;82;21159;-83
2021/01/20 05:35:03;;;;;;;3.15;1.52;;;;;;;0.84;85.19;96087.17;1751585;82;21143;-83
2021/01/20 05:37:31;;;;;;;2.30;1.60;;;;;;;0.90;85.14;96078.45;1751641;82;21266;-83
2021/01/20 05:40:12;;;;;;;8.45;2.30;;;;;;;0.90;85.04;96086.27;1751770;81;21122;-83
2021/01/20 05:42:52;;;;;;;2.40;1.50;;;;;;;0.90;85.04;96082.36;1751854;82;21125;-83
2021/01/20 05:45:23;;;;;;;2.72;1.72;;;;;;;0.94;85.12;96105.66;1751921;82;21492;-81
2021/01/20 05:48:09;;;;;;;2.85;1.55;;;;;;;0.97;85.29;96096.06;1751463;82;21173;-81
2021/01/20 05:50:57;;;;;;;2.37;1.47;;;;;;;1.02;85.34;96109.75;1751720;82;21131;-82
2021/01/20 05:53:24;;;;;;;4.33;2.15;;;;;;;1.02;85.24;96105.83;1751692;82;21270;-82
2021/01/20 05:56:04;;;;;;;4.65;2.72;;;;;;;1.01;85.26;96110.77;1751690;81;21293;-82
2021/01/20 05:58:40;;;;;;;2.77;2.02;;;;;;;1.01;85.35;96113.38;1751715;81;21152;-83
2021/01/20 06:01:11;;;;;;;3.30;2.12;;;;;;;1.01;85.51;96108.16;1751814;82;21124;-82
2021/01/20 06:03:39;;;;;;;3.08;2.25;;;;;;;1.02;85.70;96111.05;1751830;82;21278;-82
2021/01/20 06:06:07;;;;;;;2.72;2.15;;;;;;;1.00;85.69;96109.98;1751777;82;21508;-82
2021/01/20 06:08:36;;;;;;;7.05;3.02;;;;;;;0.97;85.86;96096.06;1751558;81;21116;-82
2021/01/20 06:11:05;;;;;;;4.03;2.37;;;;;;;0.97;85.95;96102.59;1751591;82;21163;-82
2021/01/20 06:13:34;;;;;;;4.47;2.25;;;;;;;0.90;86.12;96087.58;1751605;81;21690;-82
2021/01/20 06:16:23;;;;;;;3.37;2.22;;;;;;;0.88;86.22;96076.58;1752061;82;21532;-82
2021/01/20 06:18:57;;;;;;;4.80;2.60;;;;;;;1.03;86.47;96100.89;1724292;83;21143;-82
2021/01/20 06:21:28;;;;;;;2.75;1.75;;;;;;;1.03;86.47;96100.89;1726969;83;21285;-82
2021/01/20 06:24:15;;;;;;;2.52;2.05;;;;;;;1.05;86.40;96119.72;1727318;83;21297;-82
2021/01/20 06:26:51;;;;;;;3.47;1.75;;;;;;;1.07;86.46;96113.23;1727429;83;21238;-82
2021/01/20 06:29:23;;;;;;;3.15;1.80;;;;;;;1.10;86.51;96115.90;1726163;83;21148;-82
2021/01/20 06:31:52;;;;;;;1.70;1.52;;;;;;;1.13;86.44;96111.55;1724716;83;21116;-82
2021/01/20 06:34:20;;;;;;;2.50;1.98;;;;;;;1.16;86.45;96111.08;1727529;83;21527;-82
2021/01/20 06:36:46;;;;;;;4.92;2.15;;;;;;;1.21;86.51;96110.38;1727397;83;21511;-82
2021/01/20 06:39:33;;;;;;;5.37;2.45;;;;;;;1.24;86.41;96108.09;1727268;83;21483;-82
2021/01/20 06:42:02;;;;;;;2.70;2.02;;;;;;;1.22;86.27;96121.09;1727417;83;21476;-82
2021/01/20 06:44:30;;;;;;;3.98;1.85;;;;;;;1.21;86.25;96115.09;1727485;83;21159;-82
2021/01/20 06:47:01;;;;;;;5.37;2.95;;;;;;;1.22;86.26;96123.20;1735185;82;21158;-82
2021/01/20 06:49:31;;;;;;;4.20;2.45;;;;;;;1.25;86.17;96132.38;1757555;81;21293;-82
2021/01/20 06:52:15;;;;;;;4.30;2.65;;;;;;;1.28;86.13;96133.25;1757313;82;21147;-82
2021/01/20 06:54:46;;;;;;;4.67;2.72;;;;;;;1.31;86.01;96127.56;1757379;82;21131;-82
2021/01/20 06:57:30;;;;;;;3.45;2.02;;;;;;;1.36;85.94;96142.02;1757307;82;21124;-82
2021/01/20 07:00:14;;;;;;;9.45;2.42;;;;;;;1.41;85.86;96138.21;1757398;81;21116;-82
2021/01/20 07:03:02;;;;;;;3.02;1.57;;;;;;;1.53;85.58;96139.45;1752822;81;21116;-82
2021/01/20 07:05:39;;;;;;;2.47;1.30;;;;;;;1.61;85.26;96152.96;1757289;81;21116;-82
2021/01/20 07:08:10;;;;;;;4.35;1.80;;;;;;;1.58;85.02;96146.11;1757201;81;21601;-82
2021/01/20 07:11:03;;;;;;;3.37;1.85;;;;;;;1.72;84.82;96162.58;1757543;82;21297;-82
2021/01/20 07:13:36;;;;;;;5.75;2.47;;;;;;;1.77;84.75;96151.42;1757288;82;21126;-82
2021/01/20 07:16:06;;;;;;;2.65;1.77;;;;;;;1.88;84.71;96151.10;1757299;82;21128;-82
2021/01/20 07:18:36;;;;;;;;;;;;;;;1.96;84.62;96159.34;1759585;81;21132;-82
2021/01/20 07:21:06;;;;;;;3.87;1.57;;;;;;;2.05;84.58;96156.64;1757284;81;20368;-83
2021/01/20 07:23:35;;;;;;;4.62;1.98;;;;;;;2.13;84.43;96145.53;1757290;82;21131;-82
2021/01/20 07:26:05;;;;;;;6.50;3.33;;;;;;;2.20;84.17;96147.47;1757697;82;21317;-83
2021/01/20 07:28:35;;;;;;;5.33;2.47;;;;;;;2.27;84.12;96158.58;1757447;81;21132;-83
2021/01/20 07:31:16;;;;;;;6.37;3.40;;;;;;;2.33;83.60;96153.70;1757353;82;21155;-83
2021/01/20 07:33:52;;;;;;;3.17;1.70;;;;;;;2.29;83.43;96161.23;1757272;82;21139;-82
2021/01/20 07:36:23;;;;;;;3.95;1.65;;;;;;;2.30;83.39;96151.05;1757375;82;21213;-82
2021/01/20 07:38:50;;;;;;;;;;;;;;;2.34;83.41;96156.08;1759930;81;21155;-82
2021/01/20 07:41:22;;;;;;;6.55;2.00;;;;;;;2.38;83.56;96152.47;1757374;81;20129;-82
2021/01/20 07:43:51;;;;;;;4.97;2.37;;;;;;;2.48;83.59;96155.77;1757285;82;21135;-82
2021/01/20 07:46:23;;;;;;;8.68;4.58;;;;;;;2.62;83.62;96160.95;1757553;81;21305;-83
2021/01/20 07:48:51;;;;;;;11.53;5.95;;;;;;;2.88;83.67;96164.75;1727499;83;21456;-82
2021/01/20 07:51:24;;;;;;;10.40;4.95;;;;;;;3.20;82.84;96174.09;1727439;83;21273;-83
2021/01/20 07:54:05;;;;;;;10.90;4.15;;;;;;;3.18;81.87;96172.23;1727269;83;21290;-83
2021/01/20 07:56:35;;;;;;;7.53;3.65;;;;;;;3.09;81.83;96178.39;1727432;83;21635;-82
2021/01/20 07:59:18;;;;;;;4.20;2.72;;;;;;;3.05;82.00;96179.12;1727739;83;21302;-83
2021/01/20 08:01:46;;;;;;;5.20;2.77;;;;;;;3.06;82.19;96174.16;1727281;83;21301;-82
2021/01/20 08:04:22;;;;;;;5.20;3.00;;;;;;;3.05;82.19;96185.16;1727237;83;21313;-83
2021/01/20 08:06:51;;;;;;;5.30;3.40;;;;;;;3.11;82.41;96171.62;1727350;83;21266;-83
2021/01/20 08:09:20;;;;;;;6.10;3.55;;;;;;;3.19;82.42;96181.67;1727188;83;21642;-83
2021/01/20 08:11:48;;;;;;;5.42;3.45;;;;;;;3.30;82.37;96189.95;1727422;83;21128;-83
2021/01/20 08:14:18;;;;;;;5.78;3.45;;;;;;;3.32;82.01;96202.29;1727419;83;21160;-83
2021/01/20 08:16:46;;;;;;;6.72;3.70;;;;;;;3.33;81.43;96210.42;1732781;82;21264;-83
2021/01/20 08:19:14;;;;;;;6.97;4.03;;;;;;;3.26;81.50;96207.20;1757150;81;21151;-83
2021/01/20 08:21:45;;;;;;;6.05;3.70;;;;;;;3.28;80.81;96205.92;1757259;81;21143;-83
2021/01/20 08:24:22;;;;;;;8.10;4.42;;;;;;;3.44;81.03;96214.77;1757281;81;21143;-83
2021/01/20 08:27:02;;;;;;;7.62;3.98;;;;;;;3.62;80.45;96213.67;1757241;82;21118;-82
2021/01/20 08:29:29;;;;;;;8.15;4.50;;;;;;;3.63;79.70;96215.78;1757315;81;21248;-83
2021/01/20 08:32:14;;;;;;;5.85;2.42;;;;;;;3.67;79.65;96209.83;1757309;82;21139;-82
2021/01/20 08:34:44;;;;;;;3.52;2.22;;;;;;;3.58;79.33;96209.97;1757299;82;21556;-83
2021/01/20 08:37:20;;;;;;;4.20;2.47;;;;;;;3.36;79.45;96199.45;1757480;81;21128;-83
2021/01/20 08:39:57;;;;;;;6.62;4.15;;;;;;;3.21;79.89;96211.03;1756880;81;21116;-83
2021/01/20 08:42:29;;;;;;;5.17;3.08;;;;;;;3.15;80.34;96206.25;1757331;81;21476;-83
2021/01/20 08:45:17;;;;;;;5.65;2.45;;;;;;;3.13;80.46;96218.02;1757213;81;21527;-83
2021/01/20 08:48:00;;;;;;;6.72;3.87;;;;;;;3.20;80.64;96211.55;1756981;82;21135;-82
2021/01/20 08:50:40;;;;;;;8.58;4.37;;;;;;;3.41;80.57;96206.09;1757213;82;21147;-82
2021/01/20 08:53:26;;;;;;;;;;;;;;;3.53;80.51;96226.42;1759932;82;21151;-82
2021/01/20 08:55:56;;;;;;;5.72;3.33;;;;;;;3.49;79.94;96216.66;1752488;82;20177;-83
2021/01/20 08:58:30;;;;;;;6.50;4.15;;;;;;;3.43;80.04;96207.16;1757326;81;21201;-83
2021/01/20 09:01:24;;;;;;;9.25;4.62;;;;;;;3.35;80.05;96200.48;1757309;82;21483;-83
2021/01/20 09:03:59;;;;;;;6.72;2.90;;;;;;;3.40;80.31;96206.33;1757144;82;21143;-84
2021/01/20 09:06:29;;;;;;;3.62;2.65;;;;;;;3.49;80.18;96193.86;1757223;82;21104;-81
2021/01/20 09:08:57;;;;;;;5.75;3.45;;;;;;;3.52;79.99;96207.81;1757146;81;21162;-84
2021/01/20 09:11:26;;;;;;;5.72;3.62;;;;;;;3.53;80.00;96209.91;1757353;82;21268;-82
2021/01/20 09:13:55;;;;;;;4.15;2.55;;;;;;;3.55;80.02;96216.49;1757536;82;21155;-82
2021/01/20 09:16:30;;;;;;;7.35;3.25;;;;;;;3.56;79.90;96194.48;1757389;82;21344;-82
2021/01/20 09:18:58;;;;;;;5.62;3.12;;;;;;;3.55;79.82;96202.08;1757369;81;21308;-82
2021/01/20 09:21:27;;;;;;;7.15;4.25;;;;;;;3.53;79.86;96187.64;1757280;81;21502;-82
2021/01/20 09:23:54;;;;;;;6.97;3.85;;;;;;;3.55;79.97;96196.83;1757519;81;21277;-82
2021/01/20 09:26:22;;;;;;;7.03;4.00;;;;;;;3.56;79.87;96187.94;1757175;82;21164;-82
2021/01/20 09:28:50;;;;;;;8.45;3.90;;;;;;;3.54;79.97;96210.98;1757414;81;21143;-82
2021/01/20 09:31:17;;;;;;;7.70;4.10;;;;;;;3.59;79.94;96199.75;1757143;82;21152;-82
2021/01/20 09:33:44;;;;;;;5.53;3.35;;;;;;;3.56;79.96;96193.17;1757182;81;21148;-82
2021/01/20 09:36:11;;;;;;;4.65;2.80;;;;;;;3.57;79.97;96192.14;1757126;81;21151;-82
2021/01/20 09:38:39;;;;;;;5.50;3.85;;;;;;;3.57;79.97;96188.73;1757240;81;21163;-82
2021/01/20 09:41:06;;;;;;;5.47;3.33;;;;;;;3.51;79.97;96193.09;1757174;82;21148;-83
2021/01/20 09:43:33;;;;;;;6.85;3.17;;;;;;;3.52;80.11;96202.57;1757218;82;21147;-83
2021/01/20 09:46:00;;;;;;;3.70;2.35;;;;;;;3.56;80.09;96198.94;1757333;82;21147;-82
2021/01/20 09:48:27;;;;;;;4.87;3.05;;;;;;;3.48;80.05;96200.14;1756881;81;21108;-83
2021/01/20 09:50:55;;;;;;;3.60;2.30;;;;;;;3.47;80.24;96203.00;1757169;81;21159;-82
2021/01/20 09:53:22;;;;;;;4.67;2.52;;;;;;;3.50;80.19;96189.41;1757191;82;21519;-82
2021/01/20 09:55:49;;;;;;;2.80;1.95;;;;;;;3.50;80.26;96205.13;1757165;82;21135;-82
2021/01/20 09:58:17;;;;;;;3.12;2.05;;;;;;;3.50;80.10;96165.30;1757577;81;21306;-83
2021/01/20 10:00:44;;;;;;;4.30;2.47;;;;;;;3.49;80.12;96199.62;1757313;82;21155;-82
2021/01/20 10:03:11;;;;;;;3.42;1.98;;;;;;;3.51;80.21;96196.23;1757140;82;21104;-83
2021/01/20 10:05:38;;;;;;;3.40;2.05;;;;;;;3.52;80.13;96185.53;1757247;81;21113;-82
2021/01/20 10:08:06;;;;;;;2.42;1.57;;;;;;;3.51;80.19;96193.09;1757285;81;21479;-83
2021/01/20 10:10:33;;;;;;;3.05;2.75;;;;;;;3.50;80.32;96201.20;1757349;81;21179;-82
2021/01/20 10:13:00;;;;;;;2.05;1.67;;;;;;;3.50;80.36;96208.55;1757226;82;21535;-82
2021/01/20 10:15:27;;;;;;;3.27;2.52;;;;;;;3.54;80.30;96209.66;1757230;81;21487;-82
2021/01/20 10:17:55;;;;;;;7.55;2.58;;;;;;;3.52;80.36;96185.53;1756969;81;21555;-83
2021/01/20 10:20:24;;;;;;;3.12;2.08;;;;;;;3.55;80.36;96219.11;1753458;81;21568;-83
2021/01/20 10:22:51;;;;;;;4.10;2.80;;;;;;;3.57;80.37;96213.11;1751560;81;21174;-83
2021/01/20 10:25:18;;;;;;;3.22;2.00;;;;;;;3.54;80.24;96190.02;1751734;82;21172;-83
2021/01/20 10:27:46;;;;;;;4.55;2.50;;;;;;;3.48;80.30;96176.55;1751704;81;21159;-83
2021/01/20 10:30:14;;;;;;;4.87;3.25;;;;;;;3.49;80.37;96193.86;1751524;81;21128;-83
2021/01/20 10:32:42;;;;;;;8.13;3.20;;;;;;;3.53;80.26;96188.42;1751547;82;21132;-83
2021/01/20 10:35:10;;;;;;;4.87;3.30;;;;;;;3.53;80.21;96185.02;1751549;81;21167;-82
2021/01/20 10:37:38;;;;;;;6.33;3.98;;;;;;;3.52;80.12;96165.88;1751504;82;21148;-82
2021/01/20 10:40:08;;;;;;;5.55;3.50;;;;;;;3.48;80.05;96145.11;1751556;81;21160;-83
2021/01/20 10:42:35;;;;;;;6.50;2.83;;;;;;;3.47;80.13;96182.83;1751944;82;21306;-82
2021/01/20 10:45:04;;;;;;;4.67;2.98;;;;;;;3.46;80.10;96186.48;1751902;82;21159;-82
2021/01/20 10:47:32;;;;;;;5.20;2.87;;;;;;;3.44;80.05;96179.39;1751337;81;21156;-83
2021/01/20 10:49:59;;;;;;;6.47;2.85;;;;;;;3.47;80.13;96178.90;1751871;81;21293;-83
2021/01/20 10:52:27;;;;;;;6.12;3.90;;;;;;;3.52;79.90;96179.50;1751802;82;21302;-83
2021/01/20 10:54:54;;;;;;;6.53;3.25;;;;;;;3.53;79.82;96153.56;1751615;82;21611;-82
2021/01/20 10:57:23;;;;;;;4.47;2.92;;;;;;;3.52;79.72;96152.77;1751541;81;21143;-82
2021/01/20 10:59:50;;;;;;;4.33;2.45;;;;;;;3.55;79.63;96158.84;1751523;81;21120;-82
2021/01/20 11:02:18;;;;;;;3.70;2.35;;;;;;;3.55;79.59;96131.31;1751867;82;21152;-82
2021/01/20 11:04:45;;;;;;;6.33;3.22;;;;;;;3.58;79.50;96164.09;1751604;82;21270;-82
2021/01/20 11:07:12;;;;;;;4.72;2.33;;;;;;;3.64;79.44;96154.45;1751498;82;21428;-82
2021/01/20 11:09:42;;;;;;;5.97;3.33;;;;;;;3.66;79.15;96119.61;1751522;81;21148;-82
2021/01/20 11:12:10;;;;;;;7.20;4.20;;;;;;;3.63;79.23;96141.87;1751634;81;21492;-83
2021/01/20 11:14:37;;;;;;;5.90;3.55;;;;;;;3.66;79.35;96161.55;1751619;81;21635;-82
2021/01/20 11:17:05;;;;;;;5.72;3.30;;;;;;;3.72;79.26;96156.66;1751476;81;21650;-82
2021/01/20 11:19:32;;;;;;;5.45;2.65;;;;;;;3.75;79.03;96152.23;1752503;81;21709;-83
2021/01/20 11:21:59;;;;;;;5.10;2.90;;;;;;;3.73;78.97;96143.82;1757306;81;21132;-83
2021/01/20 11:24:26;;;;;;;5.53;3.50;;;;;;;3.74;78.96;96145.41;1757287;82;21139;-83
2021/01/20 11:26:54;;;;;;;7.28;3.62;;;;;;;3.75;79.05;96126.01;1757274;82;21480;-83
2021/01/20 11:29:24;;;;;;;5.78;3.70;;;;;;;3.81;78.97;96142.08;1757310;81;21517;-83
2021/01/20 11:31:51;;;;;;;5.55;3.30;;;;;;;3.83;78.91;96125.06;1757370;82;21143;-83
2021/01/20 11:34:19;;;;;;;5.12;3.10;;;;;;;3.88;78.84;96133.48;1757278;81;21129;-83
2021/01/20 11:36:46;;;;;;;6.20;3.05;;;;;;;3.91;78.54;96131.67;1757338;82;21520;-83
2021/01/20 11:39:14;;;;;;;7.25;3.60;;;;;;;3.88;78.49;96126.94;1757233;81;21124;-83
2021/01/20 11:41:41;;;;;;;6.22;3.42;;;;;;;3.87;78.61;96143.70;1757438;82;21139;-83
2021/01/20 11:44:08;;;;;;;5.75;2.40;;;;;;;3.89;78.70;96136.38;1757258;82;21555;-83
2021/01/20 11:46:35;;;;;;;6.10;3.72;;;;;;;3.92;78.45;96127.22;1756982;82;21139;-83
2021/01/20 11:49:09;;;;;;;3.33;2.45;;;;;;;3.92;78.51;96139.02;1757442;81;21285;-83
2021/01/20 11:51:39;;;;;;;8.13;4.03;;;;;;;3.94;78.25;96144.32;1757285;81;21088;-83
2021/01/20 11:54:06;;;;;;;5.80;3.02;;;;;;;3.95;78.25;96143.28;1757420;81;21151;-83
2021/01/20 11:56:34;;;;;;;5.78;3.62;;;;;;;3.95;78.10;96134.10;1757241;81;21208;-84
2021/01/20 11:59:01;;;;;;;4.60;2.85;;;;;;;3.97;78.20;96139.89;1757248;81;21132;-83